createdAt,value
2022-11-19T00:00:18.007Z,99.99
2022-11-19T00:01:17.968Z,99.99
2022-11-19T00:02:18.022Z,99.99
2022-11-19T00:03:17.946Z,99.99
2022-11-19T00:04:17.942Z,99.99
2022-11-19T00:05:17.933Z,99.99
2022-11-19T00:06:17.914Z,99.99
2022-11-19T00:07:17.944Z,99.99
2022-11-19T00:08:17.896Z,99.99
2022-11-19T00:09:18.314Z,99.99
2022-11-19T00:10:17.874Z,99.99
2022-11-19T00:11:17.843Z,99.99
2022-11-19T00:12:17.841Z,99.99
2022-11-19T00:13:17.838Z,99.99
2022-11-19T00:14:17.851Z,99.99
2022-11-19T00:15:17.813Z,99.99
2022-11-19T00:16:17.822Z,99.99
2022-11-19T00:17:17.835Z,99.99
2022-11-19T00:18:17.775Z,99.99
2022-11-19T00:19:18.199Z,99.99
2022-11-19T00:20:17.753Z,99.99
2022-11-19T00:21:17.754Z,99.99
2022-11-19T00:22:17.771Z,99.99
2022-11-19T00:23:17.711Z,99.99
2022-11-19T00:24:17.711Z,99.99
2022-11-19T00:25:17.694Z,99.99
2022-11-19T00:26:17.685Z,99.99
2022-11-19T00:27:17.670Z,99.99
2022-11-19T00:28:17.683Z,99.99
2022-11-19T00:29:18.271Z,99.99
2022-11-19T00:30:40.673Z,99.99
2022-11-19T00:31:18.630Z,99.99
2022-11-19T00:32:17.631Z,99.99
2022-11-19T00:33:17.767Z,99.99
2022-11-19T00:34:17.609Z,99.99
2022-11-19T00:35:17.594Z,99.99
2022-11-19T00:36:17.576Z,99.99
2022-11-19T00:37:17.550Z,99.99
2022-11-19T00:38:17.595Z,99.99
2022-11-19T00:39:17.969Z,99.99
2022-11-19T00:40:17.540Z,99.99
2022-11-19T00:41:17.507Z,99.99
2022-11-19T00:42:17.525Z,99.99
2022-11-19T00:43:17.515Z,99.99
2022-11-19T00:44:17.507Z,99.99
2022-11-19T00:45:17.472Z,99.99
2022-11-19T00:46:17.484Z,99.99
2022-11-19T00:47:17.453Z,99.99
2022-11-19T00:48:17.452Z,99.99
2022-11-19T00:49:17.949Z,99.99
2022-11-19T00:50:17.440Z,99.99
2022-11-19T00:51:17.411Z,99.99
2022-11-19T00:52:17.403Z,99.99
2022-11-19T00:53:17.411Z,99.99
2022-11-19T00:54:17.395Z,99.99
2022-11-19T00:55:17.360Z,99.99
2022-11-19T00:56:17.371Z,99.99
2022-11-19T00:57:17.345Z,99.99
2022-11-19T00:58:17.380Z,99.99
2022-11-19T00:59:18.014Z,99.99
2022-11-19T01:00:17.332Z,99.99
2022-11-19T01:01:17.368Z,99.99
2022-11-19T01:02:17.292Z,99.99
2022-11-19T01:03:17.261Z,99.99
2022-11-19T01:04:17.284Z,99.99
2022-11-19T01:05:17.256Z,99.99
2022-11-19T01:06:19.324Z,99.99
2022-11-19T01:07:17.248Z,99.99
2022-11-19T01:08:17.239Z,99.99
2022-11-19T01:09:17.422Z,99.99
2022-11-19T01:10:17.209Z,99.99
2022-11-19T01:11:17.195Z,99.99
2022-11-19T01:12:17.187Z,99.99
2022-11-19T01:13:17.164Z,99.99
2022-11-19T01:14:17.169Z,99.99
2022-11-19T01:15:17.132Z,99.99
2022-11-19T01:16:17.260Z,99.99
2022-11-19T01:17:17.112Z,99.99
2022-11-19T01:18:17.122Z,99.99
2022-11-19T01:19:17.584Z,99.99
2022-11-19T01:20:17.177Z,99.99
2022-11-19T01:21:17.073Z,99.99
2022-11-19T01:22:17.082Z,99.99
2022-11-19T01:23:17.072Z,99.99
2022-11-19T01:24:17.040Z,99.99
2022-11-19T01:25:17.032Z,99.99
2022-11-19T01:26:17.026Z,99.99
2022-11-19T01:27:17.012Z,99.99
2022-11-19T01:28:17.033Z,99.99
2022-11-19T01:29:17.254Z,99.99
2022-11-19T01:30:17.020Z,99.99
2022-11-19T01:31:16.969Z,99.99
2022-11-19T01:32:16.963Z,99.99
2022-11-19T01:33:16.933Z,99.99
2022-11-19T01:34:16.961Z,99.99
2022-11-19T01:35:16.965Z,99.99
2022-11-19T01:36:16.920Z,99.99
2022-11-19T01:37:16.905Z,99.99
2022-11-19T01:38:16.884Z,99.99
2022-11-19T01:39:17.171Z,99.99
2022-11-19T01:40:16.893Z,99.99
2022-11-19T01:41:16.851Z,99.99
2022-11-19T01:42:16.844Z,99.99
2022-11-19T01:43:16.821Z,99.99
2022-11-19T01:44:16.821Z,99.99
2022-11-19T01:45:16.809Z,99.99
2022-11-19T01:46:16.801Z,99.99
2022-11-19T01:47:16.781Z,99.99
2022-11-19T01:48:17.221Z,99.99
2022-11-19T01:49:17.371Z,99.99
2022-11-19T01:50:16.769Z,99.99
2022-11-19T01:51:16.725Z,99.99
2022-11-19T01:52:16.757Z,99.99
2022-11-19T01:53:16.710Z,99.99
2022-11-19T01:54:16.709Z,99.99
2022-11-19T01:55:16.722Z,99.99
2022-11-19T01:56:16.696Z,99.99
2022-11-19T01:57:16.692Z,99.99
2022-11-19T01:58:16.669Z,99.99
2022-11-19T01:59:16.896Z,99.99
2022-11-19T02:00:16.649Z,99.99
2022-11-19T02:01:16.670Z,99.99
2022-11-19T02:02:16.629Z,99.99
2022-11-19T02:03:16.602Z,99.99
2022-11-19T02:04:16.602Z,99.99
2022-11-19T02:05:16.792Z,99.99
2022-11-19T02:06:16.582Z,99.99
2022-11-19T02:07:16.632Z,99.99
2022-11-19T02:08:16.571Z,99.99
2022-11-19T02:09:16.761Z,99.99
2022-11-19T02:10:16.537Z,99.99
2022-11-19T02:11:16.562Z,99.99
2022-11-19T02:12:16.547Z,99.99
2022-11-19T02:13:16.499Z,99.99
2022-11-19T02:14:16.498Z,99.99
2022-11-19T02:15:16.487Z,99.99
2022-11-19T02:16:16.489Z,99.99
2022-11-19T02:17:16.475Z,99.99
2022-11-19T02:18:16.462Z,99.99
2022-11-19T02:19:16.857Z,99.99
2022-11-19T02:20:16.426Z,99.99
2022-11-19T02:21:16.451Z,99.99
2022-11-19T02:22:16.398Z,99.99
2022-11-19T02:23:16.367Z,99.99
2022-11-19T02:24:16.386Z,99.99
2022-11-19T02:25:16.363Z,99.99
2022-11-19T02:26:16.374Z,99.99
2022-11-19T02:27:16.340Z,99.99
2022-11-19T02:28:16.394Z,99.99
2022-11-19T02:29:16.708Z,99.99
2022-11-19T02:30:16.306Z,99.99
2022-11-19T02:31:16.307Z,99.99
2022-11-19T02:32:16.298Z,99.99
2022-11-19T02:33:16.279Z,99.99
2022-11-19T02:34:16.286Z,99.99
2022-11-19T02:35:16.240Z,99.99
2022-11-19T02:36:16.274Z,99.99
2022-11-19T02:37:16.246Z,99.99
2022-11-19T02:38:16.239Z,99.99
2022-11-19T02:39:16.472Z,99.99
2022-11-19T02:40:16.262Z,99.99
2022-11-19T02:41:16.187Z,99.99
2022-11-19T02:42:16.198Z,99.99
2022-11-19T02:43:16.179Z,99.99
2022-11-19T02:44:16.167Z,99.99
2022-11-19T02:45:16.149Z,99.99
2022-11-19T02:46:16.148Z,99.99
2022-11-19T02:47:16.126Z,99.99
2022-11-19T02:48:16.130Z,99.99
2022-11-19T02:49:16.530Z,99.99
2022-11-19T02:50:16.108Z,99.99
2022-11-19T02:51:16.077Z,99.99
2022-11-19T02:52:16.067Z,99.99
2022-11-19T02:53:16.054Z,99.99
2022-11-19T02:54:16.053Z,99.99
2022-11-19T02:55:16.067Z,99.99
2022-11-19T02:56:16.022Z,99.99
2022-11-19T02:57:16.019Z,99.99
2022-11-19T02:58:16.015Z,99.99
2022-11-19T02:59:16.048Z,99.99
2022-11-19T03:00:15.994Z,99.99
2022-11-19T03:01:16.022Z,99.99
2022-11-19T03:02:15.994Z,99.99
2022-11-19T03:03:15.948Z,99.99
2022-11-19T03:04:15.975Z,99.99
2022-11-19T03:05:15.927Z,99.99
2022-11-19T03:06:15.959Z,99.99
2022-11-19T03:07:15.944Z,99.99
2022-11-19T03:08:16.015Z,99.99
2022-11-19T03:09:16.108Z,99.99
2022-11-19T03:10:15.923Z,99.99
2022-11-19T03:11:15.862Z,99.99
2022-11-19T03:12:15.854Z,99.99
2022-11-19T03:13:15.854Z,99.99
2022-11-19T03:14:15.914Z,99.99
2022-11-19T03:15:15.815Z,99.99
2022-11-19T03:16:15.802Z,99.99
2022-11-19T03:17:15.814Z,99.99
2022-11-19T03:18:15.790Z,99.99
2022-11-19T03:19:15.777Z,99.99
2022-11-19T03:20:15.787Z,99.99
2022-11-19T03:21:15.743Z,99.99
2022-11-19T03:22:15.748Z,99.99
2022-11-19T03:23:15.727Z,99.99
2022-11-19T03:24:15.723Z,99.99
2022-11-19T03:25:15.715Z,99.99
2022-11-19T03:26:15.758Z,99.99
2022-11-19T03:27:15.684Z,99.99
2022-11-19T03:28:15.759Z,99.99
2022-11-19T03:29:15.662Z,99.99
2022-11-19T03:30:15.668Z,99.99
2022-11-19T03:31:15.655Z,99.99
2022-11-19T03:32:15.651Z,99.99
2022-11-19T03:33:15.623Z,99.99
2022-11-19T03:34:15.615Z,99.99
2022-11-19T03:35:15.598Z,99.99
2022-11-19T03:36:15.616Z,99.99
2022-11-19T03:37:15.564Z,99.99
2022-11-19T03:38:15.579Z,99.99
2022-11-19T03:39:15.563Z,99.99
2022-11-19T03:40:15.532Z,99.99
2022-11-19T03:41:15.563Z,99.99
2022-11-19T03:42:15.516Z,99.99
2022-11-19T03:43:15.506Z,99.99
2022-11-19T03:44:15.496Z,99.99
2022-11-19T03:45:15.511Z,99.99
2022-11-19T03:46:15.492Z,99.99
2022-11-19T03:47:15.460Z,99.99
2022-11-19T03:48:15.463Z,99.99
2022-11-19T03:49:15.436Z,99.99
2022-11-19T03:50:15.445Z,99.99
2022-11-19T03:51:15.471Z,99.99
2022-11-19T03:52:15.413Z,99.99
2022-11-19T03:53:15.384Z,99.99
2022-11-19T03:54:15.431Z,99.99
2022-11-19T03:55:15.382Z,99.99
2022-11-19T03:56:15.393Z,99.99
2022-11-19T03:57:15.451Z,99.99
2022-11-19T03:58:15.347Z,99.99
2022-11-19T03:59:15.325Z,99.99
2022-11-19T04:00:15.340Z,99.99
2022-11-19T04:01:15.466Z,99.99
2022-11-19T04:02:15.301Z,99.99
2022-11-19T04:03:15.286Z,99.99
2022-11-19T04:04:15.285Z,99.99
2022-11-19T04:05:15.260Z,99.99
2022-11-19T04:06:15.268Z,99.99
2022-11-19T04:07:15.322Z,99.99
2022-11-19T04:08:15.244Z,99.99
2022-11-19T04:09:15.212Z,99.99
2022-11-19T04:10:15.212Z,99.99
2022-11-19T04:12:22.740Z,99.99
2022-11-19T04:13:22.720Z,99.99
2022-11-19T04:14:22.708Z,99.99
2022-11-19T04:15:22.690Z,99.99
2022-11-19T04:16:22.702Z,99.99
2022-11-19T04:17:22.684Z,99.99
2022-11-19T04:18:22.653Z,99.99
2022-11-19T04:19:22.669Z,99.99
2022-11-19T04:20:22.641Z,99.99
2022-11-19T04:21:22.665Z,99.99
2022-11-19T04:22:22.609Z,99.99
2022-11-19T04:23:22.708Z,99.99
2022-11-19T04:24:22.620Z,99.99
2022-11-19T04:25:22.597Z,99.99
2022-11-19T04:26:22.864Z,99.99
2022-11-19T04:27:22.588Z,99.99
2022-11-19T04:28:22.552Z,99.99
2022-11-19T04:29:22.556Z,99.99
2022-11-19T04:30:22.517Z,99.99
2022-11-19T04:31:22.545Z,99.99
2022-11-19T04:32:22.501Z,99.99
2022-11-19T04:33:22.522Z,99.99
2022-11-19T04:34:22.500Z,99.99
2022-11-19T04:35:22.492Z,99.99
2022-11-19T04:36:22.496Z,99.99
2022-11-19T04:37:22.548Z,99.99
2022-11-19T04:38:22.516Z,99.99
2022-11-19T04:39:23.050Z,99.99
2022-11-19T04:40:22.620Z,99.99
2022-11-19T04:41:22.672Z,99.99
2022-11-19T04:42:22.596Z,99.99
2022-11-19T04:43:22.416Z,99.99
2022-11-19T04:44:22.397Z,99.99
2022-11-19T04:45:22.372Z,99.99
2022-11-19T04:46:22.348Z,99.99
2022-11-19T04:47:22.356Z,99.99
2022-11-19T04:48:22.324Z,99.99
2022-11-19T04:49:22.534Z,99.99
2022-11-19T04:50:22.536Z,99.99
2022-11-19T04:51:22.296Z,99.99
2022-11-19T04:52:22.277Z,99.99
2022-11-19T04:53:22.297Z,99.99
2022-11-19T04:54:22.313Z,99.99
2022-11-19T04:55:22.265Z,99.99
2022-11-19T04:56:22.465Z,99.99
2022-11-19T04:57:22.236Z,99.99
2022-11-19T04:58:22.225Z,99.99
2022-11-19T04:59:22.500Z,99.99
2022-11-19T05:00:22.196Z,99.99
2022-11-19T05:01:22.349Z,99.99
2022-11-19T05:02:22.204Z,99.99
2022-11-19T05:03:22.177Z,99.99
2022-11-19T05:04:22.156Z,99.99
2022-11-19T05:05:22.147Z,99.99
2022-11-19T05:06:22.152Z,99.99
2022-11-19T05:07:22.210Z,99.99
2022-11-19T05:08:22.104Z,99.99
2022-11-19T05:09:22.451Z,99.99
2022-11-19T05:10:22.096Z,99.99
2022-11-19T05:11:22.088Z,99.99
2022-11-19T05:12:22.094Z,99.99
2022-11-19T05:13:22.073Z,99.99
2022-11-19T05:14:23.756Z,99.99
2022-11-19T05:15:23.057Z,99.99
2022-11-19T05:16:22.034Z,99.99
2022-11-19T05:17:22.032Z,99.99
2022-11-19T05:18:22.032Z,99.99
2022-11-19T05:19:22.213Z,99.99
2022-11-19T05:20:21.997Z,99.99
2022-11-19T05:21:21.977Z,99.99
2022-11-19T05:22:21.953Z,99.99
2022-11-19T05:23:21.967Z,99.99
2022-11-19T05:24:21.933Z,99.99
2022-11-19T05:25:21.955Z,99.99
2022-11-19T05:26:21.933Z,99.99
2022-11-19T05:27:21.937Z,99.99
2022-11-19T05:28:32.690Z,99.99
2022-11-19T05:29:22.887Z,99.99
2022-11-19T05:30:21.866Z,99.99
2022-11-19T05:31:21.901Z,99.99
2022-11-19T05:32:21.842Z,99.99
2022-11-19T05:33:21.853Z,99.99
2022-11-19T05:34:21.839Z,99.99
2022-11-19T05:35:22.466Z,99.99
2022-11-19T05:36:21.810Z,99.99
2022-11-19T05:37:21.842Z,99.99
2022-11-19T05:38:21.805Z,99.99
2022-11-19T05:39:22.505Z,99.99
2022-11-19T05:40:21.755Z,99.99
2022-11-19T05:41:21.785Z,99.99
2022-11-19T05:42:21.727Z,99.99
2022-11-19T05:43:21.754Z,99.99
2022-11-19T05:44:21.714Z,99.99
2022-11-19T05:45:21.722Z,99.99
2022-11-19T05:46:21.694Z,99.99
2022-11-19T05:47:21.702Z,99.99
2022-11-19T05:48:21.691Z,99.99
2022-11-19T05:49:21.942Z,99.99
2022-11-19T05:50:21.665Z,99.99
2022-11-19T05:51:21.651Z,99.99
2022-11-19T05:52:21.633Z,99.99
2022-11-19T05:53:21.678Z,99.99
2022-11-19T05:54:21.699Z,99.99
2022-11-19T05:55:21.625Z,99.99
2022-11-19T05:56:21.582Z,99.99
2022-11-19T05:57:21.607Z,99.99
2022-11-19T05:58:21.559Z,99.99
2022-11-19T05:59:22.195Z,99.99
2022-11-19T06:00:21.535Z,99.99
2022-11-19T06:01:21.551Z,99.99
2022-11-19T06:02:21.618Z,99.99
2022-11-19T06:03:21.530Z,99.99
2022-11-19T06:04:21.511Z,99.99
2022-11-19T06:05:21.490Z,99.99
2022-11-19T06:06:21.470Z,99.99
2022-11-19T06:07:21.505Z,99.99
2022-11-19T06:08:21.444Z,99.99
2022-11-19T06:09:21.821Z,99.99
2022-11-19T06:10:21.457Z,99.99
2022-11-19T06:11:21.443Z,99.99
2022-11-19T06:12:21.411Z,99.99
2022-11-19T06:13:21.410Z,99.88
2022-11-19T06:14:21.398Z,99.98
2022-11-19T06:15:21.398Z,99.99
2022-11-19T06:16:21.358Z,99.98
2022-11-19T06:17:21.358Z,99.99
2022-11-19T06:18:21.358Z,99.99
2022-11-19T06:19:21.691Z,99.99
2022-11-19T06:20:21.318Z,99.99
2022-11-19T06:21:21.335Z,99.99
2022-11-19T06:22:21.312Z,99.99
2022-11-19T06:23:21.306Z,99.99
2022-11-19T06:24:21.308Z,99.99
2022-11-19T06:25:21.282Z,99.99
2022-11-19T06:26:21.277Z,99.99
2022-11-19T06:27:21.294Z,99.99
2022-11-19T06:28:21.250Z,99.99
2022-11-19T06:29:21.748Z,99.99
2022-11-19T06:30:21.339Z,99.99
2022-11-19T06:31:21.330Z,99.99
2022-11-19T06:32:21.360Z,99.99
2022-11-19T06:33:21.399Z,99.99
2022-11-19T06:34:21.434Z,99.99
2022-11-19T06:35:21.454Z,99.99
2022-11-19T06:36:21.184Z,99.99
2022-11-19T06:37:21.178Z,99.99
2022-11-19T06:38:21.212Z,99.99
2022-11-19T06:39:21.558Z,99.99
2022-11-19T06:40:21.108Z,99.99
2022-11-19T06:41:21.103Z,99.99
2022-11-19T06:42:21.089Z,99.99
2022-11-19T06:43:21.070Z,99.99
2022-11-19T06:44:21.097Z,99.99
2022-11-19T06:45:21.067Z,99.99
2022-11-19T06:46:21.043Z,99.99
2022-11-19T06:47:21.031Z,99.99
2022-11-19T06:48:21.036Z,99.99
2022-11-19T06:49:21.328Z,99.93
2022-11-19T06:50:21.007Z,99.71
2022-11-19T06:51:21.007Z,99.82
2022-11-19T06:52:20.975Z,99.93
2022-11-19T06:53:20.956Z,99.82
2022-11-19T06:54:20.955Z,99.71
2022-11-19T06:55:21.139Z,99.71
2022-11-19T06:56:20.936Z,99.34
2022-11-19T06:57:20.927Z,99.24
2022-11-19T06:58:20.959Z,99.34
2022-11-19T06:59:21.536Z,99.40
2022-11-19T07:00:20.908Z,99.24
2022-11-19T07:01:20.939Z,99.24
2022-11-19T07:02:21.715Z,99.24
2022-11-19T07:03:20.848Z,99.24
2022-11-19T07:04:20.857Z,99.24
2022-11-19T07:05:20.840Z,99.44
2022-11-19T07:06:20.841Z,99.30
2022-11-19T07:07:20.876Z,99.34
2022-11-19T07:08:20.822Z,99.44
2022-11-19T07:09:21.128Z,99.44
2022-11-19T07:10:20.835Z,99.44
2022-11-19T07:11:20.764Z,99.44
2022-11-19T07:12:20.756Z,99.34
2022-11-19T07:13:20.776Z,99.34
2022-11-19T07:14:20.747Z,99.24
2022-11-19T07:15:20.735Z,99.24
2022-11-19T07:16:20.746Z,99.13
2022-11-19T07:17:20.735Z,98.92
2022-11-19T07:18:20.698Z,98.71
2022-11-19T07:19:21.037Z,98.71
2022-11-19T07:20:20.771Z,98.50
2022-11-19T07:21:20.705Z,98.61
2022-11-19T07:22:20.692Z,98.71
2022-11-19T07:23:20.744Z,98.92
2022-11-19T07:24:20.688Z,99.13
2022-11-19T07:25:20.724Z,99.24
2022-11-19T07:26:20.717Z,99.24
2022-11-19T07:27:20.727Z,99.13
2022-11-19T07:28:20.672Z,99.03
2022-11-19T07:29:21.038Z,98.92
2022-11-19T07:30:20.789Z,99.13
2022-11-19T07:31:20.635Z,99.03
2022-11-19T07:32:20.780Z,99.03
2022-11-19T07:33:20.639Z,99.03
2022-11-19T07:34:20.608Z,98.71
2022-11-19T07:35:20.498Z,98.50
2022-11-19T07:36:20.507Z,98.50
2022-11-19T07:37:20.799Z,98.61
2022-11-19T07:38:20.639Z,98.39
2022-11-19T07:39:20.615Z,98.39
2022-11-19T07:40:20.463Z,98.50
2022-11-19T07:41:20.422Z,98.71
2022-11-19T07:42:20.478Z,98.92
2022-11-19T07:43:20.433Z,99.13
2022-11-19T07:44:20.414Z,99.13
2022-11-19T07:45:20.398Z,98.82
2022-11-19T07:46:20.394Z,98.61
2022-11-19T07:47:20.370Z,98.39
2022-11-19T07:48:20.390Z,98.29
2022-11-19T07:49:20.732Z,98.08
2022-11-19T07:50:20.358Z,97.98
2022-11-19T07:51:20.383Z,97.35
2022-11-19T07:52:20.328Z,97.24
2022-11-19T07:53:20.326Z,97.45
2022-11-19T07:54:20.318Z,97.77
2022-11-19T07:55:20.325Z,97.77
2022-11-19T07:56:20.285Z,97.24
2022-11-19T07:57:20.275Z,97.45
2022-11-19T07:58:20.282Z,97.45
2022-11-19T07:59:20.529Z,97.35
2022-11-19T08:00:20.252Z,97.45
2022-11-19T08:01:20.309Z,97.77
2022-11-19T08:02:20.243Z,97.45
2022-11-19T08:03:20.191Z,97.35
2022-11-19T08:04:20.571Z,97.45
2022-11-19T08:05:20.412Z,97.45
2022-11-19T08:06:20.182Z,97.56
2022-11-19T08:07:20.214Z,97.72
2022-11-19T08:08:20.151Z,98.04
2022-11-19T08:09:20.451Z,97.93
2022-11-19T08:10:20.160Z,98.04
2022-11-19T08:11:20.130Z,98.35
2022-11-19T08:12:20.104Z,98.46
2022-11-19T08:13:20.095Z,98.56
2022-11-19T08:14:20.087Z,98.56
2022-11-19T08:15:20.071Z,98.56
2022-11-19T08:16:20.087Z,98.35
2022-11-19T08:17:20.044Z,97.41
2022-11-19T08:18:20.039Z,96.99
2022-11-19T08:19:20.376Z,97.09
2022-11-19T08:20:20.031Z,96.89
2022-11-19T08:21:20.018Z,96.78
2022-11-19T08:22:20.018Z,96.78
2022-11-19T08:23:19.983Z,96.99
2022-11-19T08:24:20.503Z,97.30
2022-11-19T08:25:19.948Z,97.52
2022-11-19T08:26:19.967Z,97.41
2022-11-19T08:27:19.947Z,96.47
2022-11-19T08:28:19.935Z,96.36
2022-11-19T08:29:20.252Z,96.67
2022-11-19T08:30:19.933Z,96.99
2022-11-19T08:31:19.907Z,97.30
2022-11-19T08:32:19.912Z,97.52
2022-11-19T08:33:19.868Z,97.62
2022-11-19T08:34:20.071Z,97.30
2022-11-19T08:35:19.847Z,96.89
2022-11-19T08:36:19.852Z,96.84
2022-11-19T08:37:19.828Z,96.25
2022-11-19T08:38:19.851Z,95.52
2022-11-19T08:39:19.811Z,96.15
2022-11-19T08:40:19.811Z,95.68
2022-11-19T08:41:19.784Z,95.79
2022-11-19T08:42:19.775Z,95.79
2022-11-19T08:43:19.759Z,95.90
2022-11-19T08:44:20.022Z,96.21
2022-11-19T08:45:21.039Z,96.31
2022-11-19T08:46:19.731Z,95.48
2022-11-19T08:47:19.735Z,95.06
2022-11-19T08:48:19.707Z,94.43
2022-11-19T08:49:19.771Z,94.54
2022-11-19T08:50:19.759Z,94.95
2022-11-19T08:51:19.659Z,95.27
2022-11-19T08:52:19.668Z,95.37
2022-11-19T08:53:19.662Z,95.68
2022-11-19T08:54:19.899Z,96.11
2022-11-19T08:55:19.615Z,96.00
2022-11-19T08:56:19.725Z,95.75
2022-11-19T08:57:19.608Z,95.54
2022-11-19T08:58:19.610Z,95.12
2022-11-19T08:59:19.860Z,94.60
2022-11-19T09:00:19.583Z,94.38
2022-11-19T09:01:19.618Z,94.49
2022-11-19T09:02:26.648Z,94.07
2022-11-19T09:03:19.536Z,93.87
2022-11-19T09:04:25.046Z,93.13
2022-11-19T09:05:19.495Z,93.24
2022-11-19T09:06:19.527Z,93.24
2022-11-19T09:07:19.521Z,92.46
2022-11-19T09:08:19.487Z,92.57
2022-11-19T09:09:19.468Z,92.98
2022-11-19T09:10:19.471Z,93.40
2022-11-19T09:11:19.476Z,92.88
2022-11-19T09:12:19.435Z,92.98
2022-11-19T09:13:19.416Z,93.08
2022-11-19T09:14:19.745Z,92.67
2022-11-19T09:15:19.414Z,92.94
2022-11-19T09:16:19.403Z,92.73
2022-11-19T09:17:19.400Z,93.04
2022-11-19T09:18:19.363Z,92.94
2022-11-19T09:19:19.366Z,92.73
2022-11-19T09:20:19.375Z,91.16
2022-11-19T09:21:19.359Z,91.58
2022-11-19T09:22:19.363Z,91.79
2022-11-19T09:23:19.317Z,92.31
2022-11-19T09:24:19.692Z,91.58
2022-11-19T09:25:19.295Z,91.47
2022-11-19T09:26:19.324Z,91.69
2022-11-19T09:27:19.295Z,91.89
2022-11-19T09:28:19.279Z,91.37
2022-11-19T09:29:19.277Z,91.16
2022-11-19T09:30:19.246Z,90.64
2022-11-19T09:31:19.233Z,90.22
2022-11-19T09:32:24.047Z,90.64
2022-11-19T09:33:20.241Z,91.16
2022-11-19T09:34:19.395Z,90.33
2022-11-19T09:35:19.196Z,90.11
2022-11-19T09:36:19.213Z,90.49
2022-11-19T09:37:19.197Z,91.64
2022-11-19T09:38:19.212Z,92.06
2022-11-19T09:39:19.153Z,92.23
2022-11-19T09:40:19.149Z,92.13
2022-11-19T09:41:19.113Z,92.50
2022-11-19T09:42:19.134Z,91.14
2022-11-19T09:43:19.125Z,91.98
2022-11-19T09:44:19.488Z,91.14
2022-11-19T09:45:19.080Z,90.31
2022-11-19T09:46:19.073Z,91.10
2022-11-19T09:47:19.041Z,90.16
2022-11-19T09:48:19.094Z,89.64
2022-11-19T09:49:19.033Z,90.06
2022-11-19T09:50:19.033Z,89.70
2022-11-19T09:51:19.001Z,89.70
2022-11-19T09:52:19.000Z,90.53
2022-11-19T09:53:18.993Z,90.08
2022-11-19T09:54:19.471Z,89.87
2022-11-19T09:55:18.986Z,88.51
2022-11-19T09:56:18.965Z,88.62
2022-11-19T09:57:18.948Z,88.51
2022-11-19T09:58:18.984Z,86.43
2022-11-19T09:59:18.933Z,86.67
2022-11-19T10:00:18.932Z,87.99
2022-11-19T10:01:18.917Z,87.30
2022-11-19T10:02:18.900Z,85.94
2022-11-19T10:03:18.968Z,86.25
2022-11-19T10:04:19.218Z,86.88
2022-11-19T10:05:18.869Z,85.42
2022-11-19T10:06:18.881Z,86.36
2022-11-19T10:07:18.900Z,85.63
2022-11-19T10:08:18.882Z,85.52
2022-11-19T10:09:18.809Z,86.05
2022-11-19T10:10:18.811Z,85.83
2022-11-19T10:11:18.819Z,85.63
2022-11-19T10:12:18.789Z,86.57
2022-11-19T10:13:18.831Z,86.36
2022-11-19T10:14:19.125Z,86.77
2022-11-19T10:15:18.765Z,86.57
2022-11-19T10:16:18.750Z,85.94
2022-11-19T10:17:18.749Z,85.73
2022-11-19T10:18:18.729Z,86.99
2022-11-19T10:19:18.754Z,85.52
2022-11-19T10:20:18.731Z,85.21
2022-11-19T10:21:18.669Z,84.38
2022-11-19T10:22:18.678Z,84.69
2022-11-19T10:23:18.649Z,84.89
2022-11-19T10:24:19.113Z,85.00
2022-11-19T10:25:18.646Z,85.42
2022-11-19T10:26:18.617Z,84.89
2022-11-19T10:27:18.621Z,84.48
2022-11-19T10:28:18.618Z,83.44
2022-11-19T10:29:18.961Z,81.76
2022-11-19T10:30:18.701Z,82.50
2022-11-19T10:31:18.571Z,82.50
2022-11-19T10:32:18.589Z,83.44
2022-11-19T10:33:19.409Z,83.12
2022-11-19T10:34:18.541Z,82.70
2022-11-19T10:35:18.537Z,82.50
2022-11-19T10:36:18.534Z,82.25
2022-11-19T10:37:18.511Z,82.91
2022-11-19T10:38:18.493Z,84.23
2022-11-19T10:39:18.783Z,82.56
2022-11-19T10:40:18.595Z,82.04
2022-11-19T10:41:18.466Z,82.56
2022-11-19T10:42:18.448Z,82.77
2022-11-19T10:43:23.208Z,83.71
2022-11-19T10:44:19.642Z,82.56
2022-11-19T10:45:18.438Z,82.63
2022-11-19T10:46:18.426Z,82.42
2022-11-19T10:47:18.463Z,82.31
2022-11-19T10:48:18.402Z,83.25
2022-11-19T10:49:18.641Z,83.36
2022-11-19T10:50:18.388Z,83.04
2022-11-19T10:51:18.360Z,79.81
2022-11-19T10:52:18.347Z,80.75
2022-11-19T10:53:18.358Z,81.48
2022-11-19T10:54:18.318Z,82.10
2022-11-19T10:55:18.317Z,81.55
2022-11-19T10:56:18.286Z,84.05
2022-11-19T10:57:18.280Z,81.86
2022-11-19T10:58:18.312Z,81.45
2022-11-19T10:59:18.689Z,81.02
2022-11-19T11:00:18.246Z,80.92
2022-11-19T11:01:18.364Z,81.34
2022-11-19T11:02:18.219Z,81.76
2022-11-19T11:03:18.215Z,82.48
2022-11-19T11:04:18.232Z,82.07
2022-11-19T11:05:18.200Z,81.13
2022-11-19T11:06:18.179Z,81.09
2022-11-19T11:07:18.224Z,80.51
2022-11-19T11:08:18.172Z,80.47
2022-11-19T11:09:18.406Z,80.68
2022-11-19T11:10:18.167Z,80.68
2022-11-19T11:11:18.170Z,80.47
2022-11-19T11:12:18.119Z,80.26
2022-11-19T11:13:18.119Z,79.53
2022-11-19T11:14:18.094Z,79.94
2022-11-19T11:15:18.089Z,81.51
2022-11-19T11:16:18.089Z,82.24
2022-11-19T11:17:18.090Z,81.41
2022-11-19T11:18:18.055Z,80.05
2022-11-19T11:19:18.312Z,80.36
2022-11-19T11:20:18.026Z,80.47
2022-11-19T11:21:18.120Z,80.68
2022-11-19T11:22:18.007Z,80.78
2022-11-19T11:23:18.024Z,79.11
2022-11-19T11:24:18.007Z,79.11
2022-11-19T11:25:17.975Z,79.22
2022-11-19T11:26:17.988Z,79.74
2022-11-19T11:27:17.959Z,78.97
2022-11-19T11:28:17.935Z,79.60
2022-11-19T11:29:18.088Z,79.49
2022-11-19T11:30:18.023Z,80.33
2022-11-19T11:31:17.934Z,78.24
2022-11-19T11:32:17.895Z,78.66
2022-11-19T11:33:17.896Z,79.60
2022-11-19T11:34:17.876Z,79.91
2022-11-19T11:35:17.931Z,79.25
2022-11-19T11:36:17.853Z,79.25
2022-11-19T11:37:17.871Z,80.50
2022-11-19T11:38:17.835Z,79.25
2022-11-19T11:39:18.382Z,78.83
2022-11-19T11:40:17.812Z,78.63
2022-11-19T11:42:18.811Z,77.27
2022-11-19T11:43:17.796Z,78.52
2022-11-19T11:44:17.772Z,78.94
2022-11-19T11:45:17.829Z,78.31
2022-11-19T11:46:17.790Z,77.27
2022-11-19T11:47:17.736Z,77.37
2022-11-19T11:48:17.733Z,77.69
2022-11-19T11:49:17.745Z,78.90
2022-11-19T11:50:17.684Z,77.86
2022-11-19T11:51:17.692Z,78.49
2022-11-19T11:52:17.686Z,77.44
2022-11-19T11:53:17.682Z,77.48
2022-11-19T11:54:18.460Z,77.58
2022-11-19T11:55:17.665Z,76.86
2022-11-19T11:56:17.645Z,77.06
2022-11-19T11:57:17.805Z,77.34
2022-11-19T11:58:17.624Z,77.55
2022-11-19T11:59:17.999Z,76.20
2022-11-19T12:00:17.586Z,74.95
2022-11-19T12:01:17.617Z,76.51
2022-11-19T12:02:17.613Z,74.74
2022-11-19T12:03:17.600Z,77.09
2022-11-19T12:04:17.544Z,76.09
2022-11-19T12:05:17.621Z,76.51
2022-11-19T12:06:17.539Z,76.20
2022-11-19T12:07:17.675Z,76.06
2022-11-19T12:08:17.501Z,75.01
2022-11-19T12:09:17.684Z,76.37
2022-11-19T12:10:17.481Z,76.06
2022-11-19T12:11:17.473Z,76.68
2022-11-19T12:12:17.446Z,75.85
2022-11-19T12:13:17.493Z,76.06
2022-11-19T12:14:17.440Z,74.80
2022-11-19T12:15:17.530Z,75.01
2022-11-19T12:16:17.421Z,75.22
2022-11-19T12:17:17.406Z,77.06
2022-11-19T12:18:17.445Z,77.69
2022-11-19T12:19:17.888Z,78.00
2022-11-19T12:20:17.361Z,76.43
2022-11-19T12:21:17.373Z,74.88
2022-11-19T12:22:17.362Z,75.50
2022-11-19T12:23:17.341Z,75.29
2022-11-19T12:24:17.333Z,73.73
2022-11-19T12:25:17.376Z,74.35
2022-11-19T12:26:17.302Z,76.02
2022-11-19T12:27:17.293Z,75.09
2022-11-19T12:28:17.273Z,74.08
2022-11-19T12:29:17.702Z,74.18
2022-11-19T12:30:17.285Z,74.80
2022-11-19T12:31:17.265Z,73.25
2022-11-19T12:32:17.265Z,73.14
2022-11-19T12:33:17.242Z,72.83
2022-11-19T12:34:17.213Z,74.91
2022-11-19T12:35:17.212Z,74.60
2022-11-19T12:36:17.209Z,74.18
2022-11-19T12:37:17.214Z,74.39
2022-11-19T12:38:17.153Z,73.52
2022-11-19T12:39:17.565Z,73.42
2022-11-19T12:40:17.141Z,72.93
2022-11-19T12:41:17.163Z,73.03
2022-11-19T12:42:17.122Z,74.39
2022-11-19T12:43:17.121Z,73.56
2022-11-19T12:44:17.088Z,74.29
2022-11-19T12:45:17.153Z,74.15
2022-11-19T12:46:17.110Z,73.21
2022-11-19T12:47:17.099Z,71.65
2022-11-19T12:48:17.052Z,73.11
2022-11-19T12:49:17.412Z,72.90
2022-11-19T12:50:17.043Z,74.35
2022-11-19T12:51:17.042Z,74.46
2022-11-19T12:52:17.022Z,75.09
2022-11-19T12:53:17.031Z,73.21
2022-11-19T12:54:19.543Z,74.77